Time;durP1;ratioP1;P1;durP2;ratioP2;P2;SDS_P1;SDS_P2;PMS_P1;PMS_P2;Temp;Humidity;BMP_temperature;BMP_pressure;BME280_temperature;BME280_humidity;BME280_pressure;Samples;Min_cycle;Max_cycle;Signal;HPM_P1;HPM_P2
2022/01/24 00:01:52;;;;;;;9.90;5.17;;;;;;;-1.82;100.00;100215.56;5032126;28;20227;-62
2022/01/24 00:04:20;;;;;;;10.53;5.50;;;;;;;-1.78;100.00;100224.00;5031040;28;20202;-61
2022/01/24 00:06:47;;;;;;;10.70;5.73;;;;;;;-1.67;100.00;100213.53;5032744;28;20190;-62
2022/01/24 00:09:14;;;;;;;10.70;5.67;;;;;;;-1.71;100.00;100215.31;5032656;28;20191;-62
2022/01/24 00:11:46;;;;;;;10.10;5.43;;;;;;;-1.71;100.00;100199.94;5032097;28;20299;-62
2022/01/24 00:14:48;;;;;;;12.83;5.67;;;;;;;-1.66;100.00;100210.09;5032080;28;20187;-61
2022/01/24 00:17:17;;;;;;;9.33;5.57;;;;;;;-1.67;100.00;100206.69;5031634;28;20743;-61
2022/01/24 00:27:59;;;;;;;8.30;4.63;;;;;;;-1.69;100.00;100190.50;5032058;28;20188;-61
2022/01/24 00:30:26;;;;;;;8.87;4.90;;;;;;;-1.68;100.00;100191.38;5047715;22;20203;-70
2022/01/24 00:32:52;;;;;;;9.07;4.77;;;;;;;-1.55;100.00;100187.63;5055005;28;20207;-70
2022/01/24 00:35:19;;;;;;;11.00;5.70;;;;;;;-1.61;100.00;100189.50;5055225;28;20194;-69
2022/01/24 00:37:46;;;;;;;8.77;4.83;;;;;;;-1.62;100.00;100188.69;5059828;28;20187;-71
2022/01/24 00:40:14;;;;;;;8.90;4.83;;;;;;;-1.73;100.00;100188.06;5050283;28;20690;-71
2022/01/24 00:42:51;;;;;;;11.33;5.83;;;;;;;-1.74;100.00;100196.63;5031511;28;20294;-69
2022/01/24 00:45:29;;;;;;;8.13;4.93;;;;;;;-1.77;100.00;100200.09;5031010;28;20197;-70
2022/01/24 00:48:24;;;;;;;10.03;5.43;;;;;;;-1.82;100.00;100189.09;5031751;28;20180;-73
2022/01/24 00:53:50;;;;;;;8.03;4.57;;;;;;;-2.00;100.00;100191.16;5031068;28;20686;-70
2022/01/24 00:56:17;;;;;;;9.27;5.10;;;;;;;-2.03;100.00;100191.22;5013734;28;20222;-71
2022/01/24 00:58:44;;;;;;;14.33;5.53;;;;;;;-1.98;100.00;100184.31;5031536;28;20648;-71
2022/01/24 01:01:13;;;;;;;9.77;4.90;;;;;;;-1.93;100.00;100182.50;5031323;28;20222;-70
2022/01/24 01:03:40;;;;;;;9.10;5.57;;;;;;;-1.87;100.00;100183.22;5030172;28;20237;-70
2022/01/24 01:06:08;;;;;;;10.43;5.60;;;;;;;-1.94;100.00;100183.38;5031250;28;20273;-72
2022/01/24 01:19:38;;;;;;;9.77;5.00;;;;;;;-1.80;100.00;100187.34;5023486;28;20626;-71
2022/01/24 01:22:05;;;;;;;12.57;5.50;;;;;;;-1.90;100.00;100186.72;5029091;28;20233;-71
2022/01/24 01:24:38;;;;;;;9.07;4.73;;;;;;;-1.99;100.00;100185.19;5039601;28;20216;-71
2022/01/24 01:27:10;;;;;;;9.53;4.83;;;;;;;-1.93;100.00;100174.81;5040604;28;20218;-71
2022/01/24 01:29:47;;;;;;;9.60;4.80;;;;;;;-1.96;100.00;100174.06;5040219;28;20281;-71
2022/01/24 01:32:24;;;;;;;10.03;4.80;;;;;;;-2.02;100.00;100182.69;5016464;28;20582;-72
2022/01/24 01:54:22;;;;;;;9.20;4.83;;;;;;;-1.98;100.00;100197.09;5024611;28;20217;-71
2022/01/24 01:56:48;;;;;;;10.67;5.33;;;;;;;-2.01;100.00;100199.72;5038568;28;20198;-71
2022/01/24 01:59:15;;;;;;;8.13;4.90;;;;;;;-2.05;100.00;100199.84;5018833;28;20555;-71
2022/01/24 02:01:42;;;;;;;11.50;5.70;;;;;;;-2.06;100.00;100191.28;5039027;28;20717;-71
2022/01/24 02:04:11;;;;;;;9.43;5.13;;;;;;;-2.00;100.00;100191.16;5022160;28;20245;-72
2022/01/24 02:06:38;;;;;;;9.83;5.07;;;;;;;-2.02;100.00;100186.97;5035847;28;20613;-72
2022/01/24 02:09:08;;;;;;;10.73;5.13;;;;;;;-1.98;100.00;100191.16;5038801;28;20273;-71
2022/01/24 02:11:35;;;;;;;10.80;5.43;;;;;;;-2.00;100.00;100192.91;5039811;28;20279;-72
2022/01/24 02:14:05;;;;;;;10.87;5.13;;;;;;;-1.88;100.00;100202.88;5038541;28;20194;-71
2022/01/24 02:16:40;;;;;;;11.70;6.07;;;;;;;-1.83;100.00;100195.94;5020228;28;20282;-71
2022/01/24 02:19:17;;;;;;;11.37;5.73;;;;;;;-1.87;100.00;100193.47;5038537;28;20190;-71
2022/01/24 02:21:46;;;;;;;13.37;5.60;;;;;;;-1.87;100.00;100191.78;5037446;28;20686;-71
2022/01/24 02:24:16;;;;;;;10.03;5.73;;;;;;;-1.92;100.00;100188.47;5037688;28;20190;-71
2022/01/24 02:26:43;;;;;;;9.50;4.50;;;;;;;-1.97;100.00;100186.00;5023909;28;20202;-71
2022/01/24 02:29:17;;;;;;;10.23;5.00;;;;;;;-2.00;100.00;100191.16;5044019;28;20198;-72
2022/01/24 02:31:46;;;;;;;11.40;5.97;;;;;;;-1.80;100.00;100197.59;5036864;28;20229;-71
2022/01/24 02:34:26;;;;;;;10.17;5.00;;;;;;;-1.90;100.00;100194.41;5039657;28;20248;-71
2022/01/24 02:36:56;;;;;;;9.47;4.70;;;;;;;-1.95;100.00;100194.47;5040952;28;20236;-71
2022/01/24 02:39:44;;;;;;;10.83;5.63;;;;;;;-1.92;100.00;100191.03;5040215;28;20195;-71
2022/01/24 02:50:44;;;;;;;11.27;4.73;;;;;;;-2.17;100.00;100194.09;5044560;28;20213;-71
2022/01/24 02:53:13;;;;;;;7.77;4.37;;;;;;;-2.12;100.00;100197.41;5043643;28;20202;-71
2022/01/24 02:55:40;;;;;;;9.03;4.63;;;;;;;-2.08;100.00;100193.03;5042113;28;20198;-71
2022/01/24 02:58:08;;;;;;;8.90;4.93;;;;;;;-2.20;100.00;100193.31;5042335;28;20195;-71
2022/01/24 03:00:36;;;;;;;9.53;4.77;;;;;;;-2.20;100.00;100190.75;5043576;28;20850;-71
2022/01/24 03:03:03;;;;;;;10.30;4.63;;;;;;;-2.16;100.00;100179.59;5042867;28;20187;-71
2022/01/24 03:05:30;;;;;;;8.90;4.97;;;;;;;-2.16;100.00;100177.03;5041512;28;20201;-71
2022/01/24 03:07:57;;;;;;;7.97;4.40;;;;;;;-2.17;100.00;100173.63;5039283;28;20202;-71
2022/01/24 03:10:28;;;;;;;12.07;4.93;;;;;;;-2.21;100.00;100181.41;5042318;28;20185;-71
2022/01/24 03:13:10;;;;;;;10.53;5.20;;;;;;;-2.18;100.00;100182.16;5043893;28;20186;-71
2022/01/24 03:15:37;;;;;;;10.83;5.37;;;;;;;-2.14;100.00;100170.19;5025312;28;20214;-71
2022/01/24 03:18:04;;;;;;;11.03;5.90;;;;;;;-2.15;100.00;100168.50;5042849;28;20215;-71
2022/01/24 03:20:31;;;;;;;11.73;5.33;;;;;;;-2.09;100.00;100166.63;5040936;28;20749;-71
2022/01/24 03:22:58;;;;;;;10.70;4.77;;;;;;;-2.05;100.00;100167.41;5025536;28;20179;-73
2022/01/24 03:25:27;;;;;;;11.60;5.53;;;;;;;-2.09;100.00;100161.50;5037457;28;20194;-70
2022/01/24 03:27:56;;;;;;;9.97;5.53;;;;;;;-2.14;100.00;100172.72;5042266;28;20189;-71
2022/01/24 03:30:23;;;;;;;10.50;5.63;;;;;;;-2.10;100.00;100161.53;5042300;28;20451;-71
2022/01/24 03:32:50;;;;;;;10.53;5.03;;;;;;;-2.08;100.00;100160.63;5041373;28;20680;-72
2022/01/24 03:35:17;;;;;;;10.57;5.67;;;;;;;-2.17;100.00;100160.00;5038494;28;20182;-71
2022/01/24 03:37:45;;;;;;;12.50;5.33;;;;;;;-2.13;100.00;100156.50;5040894;28;20247;-71
2022/01/24 03:40:12;;;;;;;10.13;5.40;;;;;;;-2.08;100.00;100154.66;5042870;28;20209;-71
2022/01/24 03:42:40;;;;;;;9.93;5.60;;;;;;;-2.19;100.00;100152.34;5041445;28;20543;-71
2022/01/24 03:45:10;;;;;;;10.57;4.60;;;;;;;-2.29;100.00;100153.41;5041321;28;20547;-71
2022/01/24 03:47:56;;;;;;;10.23;5.10;;;;;;;-2.32;100.00;100156.03;5043065;28;20190;-71
2022/01/24 03:50:23;;;;;;;12.40;6.10;;;;;;;-2.34;100.00;100152.66;5039827;28;20197;-71
2022/01/24 03:52:51;;;;;;;15.10;6.50;;;;;;;-2.12;100.00;100159.03;5041109;28;20201;-71
2022/01/24 03:55:19;;;;;;;9.57;5.00;;;;;;;-2.12;100.00;100159.03;5038195;28;20201;-72
2022/01/24 03:57:47;;;;;;;10.60;5.50;;;;;;;-2.19;100.00;100162.56;5041810;28;20192;-70
2022/01/24 04:00:14;;;;;;;11.23;6.33;;;;;;;-2.26;100.00;100159.31;5043019;28;20212;-71
2022/01/24 04:02:42;;;;;;;11.73;5.83;;;;;;;-2.28;100.00;100162.75;5041702;28;20194;-71
2022/01/24 04:05:10;;;;;;;11.33;5.43;;;;;;;-2.25;100.00;100161.00;5040740;28;20728;-70
2022/01/24 04:07:37;;;;;;;13.57;6.30;;;;;;;-2.28;100.00;100161.06;5042824;28;20677;-70
2022/01/24 04:10:07;;;;;;;12.17;5.83;;;;;;;-2.32;100.00;100164.56;5041657;28;20244;-73
2022/01/24 04:12:36;;;;;;;11.43;6.10;;;;;;;-2.25;100.00;100166.13;5036729;28;20594;-69
2022/01/24 04:15:25;;;;;;;13.07;5.90;;;;;;;-2.30;100.00;100170.47;5037844;28;20265;-70
2022/01/24 04:18:09;;;;;;;11.97;6.03;;;;;;;-2.35;100.00;100164.63;5043052;28;20187;-72
2022/01/24 04:23:26;;;;;;;10.57;5.90;;;;;;;-2.16;100.00;100165.06;5023487;28;20210;-71
2022/01/24 04:25:53;;;;;;;12.03;6.03;;;;;;;-2.08;100.00;100162.34;5039951;28;20208;-69
2022/01/24 04:28:19;;;;;;;11.83;5.90;;;;;;;-2.19;100.00;100154.91;5041802;28;20267;-71
2022/01/24 04:30:48;;;;;;;14.17;6.37;;;;;;;-2.13;100.00;100161.63;5023239;28;20218;-71
2022/01/24 04:33:14;;;;;;;12.10;6.57;;;;;;;-2.18;100.00;100161.69;5038136;28;20198;-71
2022/01/24 04:35:41;;;;;;;13.27;6.90;;;;;;;-2.10;100.00;100164.94;5040167;28;20213;-71
2022/01/24 04:38:08;;;;;;;16.03;6.83;;;;;;;-2.07;100.00;100161.47;5041425;28;20273;-72
2022/01/24 04:40:35;;;;;;;13.90;6.63;;;;;;;-1.95;100.00;100161.22;5039576;28;20250;-71
2022/01/24 04:43:23;;;;;;;15.00;7.07;;;;;;;-1.95;100.00;100153.53;5041321;28;20189;-72
2022/01/24 04:46:03;;;;;;;11.40;6.20;;;;;;;-1.94;100.00;100154.38;5041014;28;20201;-71
2022/01/24 04:51:26;;;;;;;13.27;6.57;;;;;;;-1.99;100.00;100164.69;4997468;28;20535;-71
2022/01/24 04:54:25;;;;;;;11.50;6.07;;;;;;;-1.95;100.00;100162.94;5040930;28;20195;-70
2022/01/24 04:56:50;;;;;;;9.73;5.90;;;;;;;-2.05;100.00;100154.59;5040685;28;20191;-70
2022/01/24 04:59:17;;;;;;;12.23;6.30;;;;;;;-2.06;100.00;100163.16;5037250;28;20191;-70
2022/01/24 05:01:45;;;;;;;12.67;6.60;;;;;;;-2.00;100.00;100157.91;5036478;28;20233;-71
2022/01/24 05:04:12;;;;;;;13.07;6.27;;;;;;;-1.87;100.00;100162.75;5039191;28;20198;-70
2022/01/24 05:06:39;;;;;;;11.40;5.80;;;;;;;-1.98;100.00;100163.81;5041988;28;20191;-71
2022/01/24 05:09:06;;;;;;;10.70;5.63;;;;;;;-2.00;100.00;100167.31;5040945;28;20183;-71
2022/01/24 05:11:40;;;;;;;11.23;5.70;;;;;;;-2.01;100.00;100165.63;5039387;28;20204;-71
2022/01/24 05:25:11;;;;;;;11.17;5.87;;;;;;;-2.12;100.00;100163.31;5022198;28;20199;-71
2022/01/24 05:27:38;;;;;;;10.50;5.57;;;;;;;-2.09;100.00;100169.19;5036596;28;20193;-70
2022/01/24 05:30:06;;;;;;;11.80;5.97;;;;;;;-2.12;100.00;100163.31;5039804;28;20189;-70
2022/01/24 05:32:34;;;;;;;14.07;5.87;;;;;;;-2.15;100.00;100166.75;5040945;28;20308;-71
2022/01/24 05:35:01;;;;;;;10.60;5.60;;;;;;;-2.18;100.00;100160.88;5038952;28;20774;-71
2022/01/24 05:37:28;;;;;;;12.90;6.07;;;;;;;-2.20;100.00;100160.91;5039522;28;20274;-71
2022/01/24 05:39:56;;;;;;;11.10;6.17;;;;;;;-2.15;100.00;100155.69;5041069;28;20665;-71
2022/01/24 05:42:23;;;;;;;11.60;5.93;;;;;;;-2.20;100.00;100163.44;5039392;28;20217;-71
2022/01/24 05:44:49;;;;;;;9.80;5.07;;;;;;;-2.29;100.00;100164.50;5038830;28;20198;-71
2022/01/24 05:47:16;;;;;;;11.03;5.30;;;;;;;-2.31;100.00;100160.25;5042497;28;20591;-70
2022/01/24 05:49:45;;;;;;;14.67;6.27;;;;;;;-2.20;100.00;100160.91;5045454;28;20274;-71
2022/01/24 05:52:13;;;;;;;11.93;6.53;;;;;;;-2.22;100.00;100162.63;5046550;28;20214;-72
2022/01/24 05:54:40;;;;;;;12.03;6.27;;;;;;;-2.18;100.00;100158.31;5049812;28;20228;-72
2022/01/24 05:57:08;;;;;;;10.73;5.50;;;;;;;-2.21;100.00;100160.94;5048760;28;20675;-71
2022/01/24 05:59:36;;;;;;;13.17;5.87;;;;;;;-2.22;100.00;100157.53;5046764;28;20186;-71
2022/01/24 06:02:03;;;;;;;11.97;5.60;;;;;;;-2.28;100.00;100166.19;5046804;28;20205;-71
2022/01/24 06:04:30;;;;;;;15.95;7.88;;;;;;;-2.27;100.00;100161.88;5047738;28;20963;-72
2022/01/24 06:06:58;;;;;;;12.20;5.87;;;;;;;-2.25;100.00;100165.25;5046451;28;20270;-71
2022/01/24 06:09:25;;;;;;;12.70;5.43;;;;;;;-2.06;100.00;100162.31;5048174;28;20197;-70
2022/01/24 06:11:52;;;;;;;11.80;5.50;;;;;;;-2.12;100.00;100165.88;5031009;28;20225;-71
2022/01/24 06:14:19;;;;;;;12.03;5.70;;;;;;;-2.11;100.00;100165.81;5043367;28;20222;-71
2022/01/24 06:16:46;;;;;;;10.03;5.50;;;;;;;-2.14;100.00;100168.44;5021574;28;20194;-71
2022/01/24 06:19:13;;;;;;;10.57;5.57;;;;;;;-2.25;100.00;100166.13;5040616;28;20208;-71
2022/01/24 06:21:40;;;;;;;10.63;5.67;;;;;;;-2.23;100.00;100161.81;5038471;28;20216;-71
2022/01/24 06:24:08;;;;;;;14.63;7.00;;;;;;;-2.30;100.00;100164.50;5021064;28;20196;-70
2022/01/24 06:26:35;;;;;;;11.43;5.90;;;;;;;-2.16;100.00;100166.81;5040374;28;20193;-72
2022/01/24 06:29:02;;;;;;;11.97;5.60;;;;;;;-2.16;100.00;100165.06;5039223;28;20241;-72
2022/01/24 06:31:29;;;;;;;12.03;6.00;;;;;;;-2.16;100.00;100159.97;5036412;28;20209;-72
2022/01/24 06:33:56;;;;;;;11.77;5.80;;;;;;;-2.12;100.00;100163.31;5038461;28;20197;-71
2022/01/24 06:36:24;;;;;;;12.37;5.17;;;;;;;-2.06;100.00;100162.31;5034489;28;20186;-71
2022/01/24 06:38:51;;;;;;;10.63;5.43;;;;;;;-2.12;100.00;100169.25;5037780;28;20191;-71
2022/01/24 06:41:24;;;;;;;9.23;5.20;;;;;;;-2.14;100.00;100167.63;5043370;28;20284;-72
2022/01/24 06:43:51;;;;;;;10.33;4.67;;;;;;;-2.11;100.00;100167.53;5039545;28;20191;-71
2022/01/24 06:46:18;;;;;;;9.43;5.03;;;;;;;-2.19;100.00;100177.94;5035678;28;20187;-72
2022/01/24 06:48:45;;;;;;;11.63;5.70;;;;;;;-2.21;100.00;100169.44;5039130;28;20187;-71
2022/01/24 06:51:12;;;;;;;8.90;4.70;;;;;;;-2.22;100.00;100170.31;5039701;28;20286;-71
2022/01/24 06:53:39;;;;;;;10.67;5.30;;;;;;;-2.18;100.00;100166.81;5035164;28;20272;-71
2022/01/24 06:56:06;;;;;;;9.77;4.80;;;;;;;-2.20;100.00;100170.31;5038896;28;20220;-72
2022/01/24 06:58:36;;;;;;;11.30;4.97;;;;;;;-2.10;100.00;100171.75;5040011;28;20193;-72
2022/01/24 07:01:04;;;;;;;15.67;7.53;;;;;;;-2.10;100.00;100175.19;5038159;28;20206;-72
2022/01/24 07:03:31;;;;;;;10.20;5.37;;;;;;;-2.06;100.00;100170.81;5037979;28;20243;-72
2022/01/24 07:05:58;;;;;;;11.60;5.77;;;;;;;-2.08;100.00;100175.13;5035465;28;20190;-72
2022/01/24 07:08:25;;;;;;;9.13;5.13;;;;;;;-2.03;100.00;100181.00;5038998;28;20277;-72
2022/01/24 07:10:52;;;;;;;10.30;5.13;;;;;;;-1.98;100.00;100176.63;5039434;28;20252;-71
2022/01/24 07:13:19;;;;;;;8.27;4.63;;;;;;;-2.00;100.00;100175.00;5038741;28;20209;-72
2022/01/24 07:15:51;;;;;;;9.10;4.80;;;;;;;-2.05;100.00;100172.50;5042064;28;20186;-72
2022/01/24 07:21:01;;;;;;;9.60;4.80;;;;;;;-2.04;100.00;100175.94;5032231;28;20355;-71
2022/01/24 07:23:28;;;;;;;10.50;4.93;;;;;;;-2.05;100.00;100169.94;5041871;28;20198;-71
2022/01/24 07:25:55;;;;;;;9.90;5.43;;;;;;;-2.08;100.00;100170.88;5039528;28;20193;-72
2022/01/24 07:28:22;;;;;;;10.77;5.20;;;;;;;-2.04;100.00;100168.25;5040072;28;20202;-71
2022/01/24 07:30:51;;;;;;;7.83;4.63;;;;;;;-2.09;100.00;100168.34;5043009;28;20237;-72
2022/01/24 07:33:17;;;;;;;8.70;4.80;;;;;;;-2.09;100.00;100169.19;5043504;28;20190;-71
2022/01/24 07:35:46;;;;;;;8.77;4.60;;;;;;;-1.98;100.00;100171.50;5024114;28;20195;-71
2022/01/24 07:38:12;;;;;;;9.47;5.13;;;;;;;-1.93;100.00;100179.94;5041173;28;20197;-72
2022/01/24 07:40:42;;;;;;;9.30;4.70;;;;;;;-1.85;100.00;100172.09;5038451;28;20230;-72
2022/01/24 07:43:11;;;;;;;9.47;4.70;;;;;;;-1.86;100.00;100167.00;5023633;28;20221;-71
2022/01/24 07:45:40;;;;;;;18.50;5.00;;;;;;;-1.84;100.00;100166.09;5042541;28;20194;-68
2022/01/24 07:48:08;;;;;;;9.13;4.67;;;;;;;-1.81;100.00;100165.19;5041930;28;20202;-68
2022/01/24 07:50:40;;;;;;;12.50;5.10;;;;;;;-1.81;100.00;100160.91;5040611;28;20183;-68
2022/01/24 07:53:07;;;;;;;9.00;4.60;;;;;;;-1.74;100.00;100164.16;5041567;28;20260;-68
2022/01/24 07:55:34;;;;;;;12.33;5.70;;;;;;;-1.64;100.00;100163.09;5042184;28;20198;-68
2022/01/24 07:58:01;;;;;;;11.87;5.83;;;;;;;-1.62;100.00;100175.88;5023223;28;20567;-68
2022/01/24 08:00:32;;;;;;;11.90;6.67;;;;;;;-1.58;100.00;100172.34;5040650;28;20307;-68
2022/01/24 08:02:58;;;;;;;9.00;5.17;;;;;;;-1.51;100.00;100185.84;5037876;28;20215;-68
2022/01/24 08:05:28;;;;;;;11.70;7.35;;;;;;;-1.46;100.00;100186.59;5040564;28;20439;-67
2022/01/24 08:07:54;;;;;;;8.90;5.47;;;;;;;-1.44;100.00;100189.09;5042464;28;20262;-67
2022/01/24 08:10:21;;;;;;;11.63;6.33;;;;;;;-1.40;100.00;100188.16;5040337;28;20191;-67
2022/01/24 08:12:48;;;;;;;15.13;7.73;;;;;;;-1.45;100.00;100192.53;5040286;28;20262;-67
2022/01/24 08:15:16;;;;;;;31.20;15.27;;;;;;;-1.43;100.00;100194.22;5035432;28;20194;-67
2022/01/24 08:17:43;;;;;;;28.70;14.83;;;;;;;-1.41;100.00;100194.16;5041122;28;20191;-67
2022/01/24 08:20:12;;;;;;;27.63;14.27;;;;;;;-1.41;100.00;100205.25;5040432;28;20191;-67
2022/01/24 08:22:41;;;;;;;19.17;9.43;;;;;;;-1.36;100.00;100197.44;5030653;28;20756;-68
2022/01/24 08:25:09;;;;;;;16.50;8.53;;;;;;;-1.38;100.00;100194.94;5027334;28;20197;-68
2022/01/24 08:27:36;;;;;;;11.90;7.67;;;;;;;-1.39;100.00;100203.50;5041166;28;20202;-69
2022/01/24 08:30:05;;;;;;;33.03;16.63;;;;;;;-1.39;100.00;100210.34;5022898;28;20634;-64
2022/01/24 08:32:32;;;;;;;24.70;12.93;;;;;;;-1.38;100.00;100201.78;5033341;28;20224;-69
2022/01/24 08:35:00;;;;;;;24.17;14.10;;;;;;;-1.35;100.00;100209.38;5034606;28;20950;-69
2022/01/24 08:37:27;;;;;;;24.23;13.30;;;;;;;-1.36;100.00;100203.44;5046681;28;20194;-68
2022/01/24 08:39:57;;;;;;;24.40;11.43;;;;;;;-1.30;100.00;100204.16;5034597;28;20290;-68
2022/01/24 08:42:30;;;;;;;16.70;7.47;;;;;;;-1.23;100.00;100203.97;5037399;28;20203;-68
2022/01/24 08:47:42;;;;;;;10.10;5.93;;;;;;;-1.20;100.00;100196.22;5042160;28;20196;-67
2022/01/24 08:50:09;;;;;;;11.30;5.87;;;;;;;-1.16;100.00;100199.56;5040853;28;20691;-67
2022/01/24 08:52:36;;;;;;;10.20;5.47;;;;;;;-1.12;100.00;100197.75;5021944;28;20231;-68
2022/01/24 08:55:07;;;;;;;12.53;6.90;;;;;;;-1.04;100.00;100199.22;5039560;28;20267;-68
2022/01/24 08:57:34;;;;;;;11.13;6.37;;;;;;;-0.97;100.00;100205.06;5023077;28;20634;-68
2022/01/24 09:00:01;;;;;;;12.10;5.77;;;;;;;-0.93;100.00;100204.09;5038988;28;20281;-68
2022/01/24 09:02:28;;;;;;;12.23;6.63;;;;;;;-0.86;100.00;100206.53;5038354;28;20214;-68
2022/01/24 09:04:54;;;;;;;13.93;7.77;;;;;;;-0.79;100.00;100202.91;5040293;28;20248;-68
2022/01/24 09:07:21;;;;;;;31.40;14.93;;;;;;;-0.72;100.00;100199.31;5039692;28;20191;-69
2022/01/24 09:09:48;;;;;;;31.13;15.07;;;;;;;-0.66;100.00;100204.28;5039097;28;20202;-69
2022/01/24 09:12:16;;;;;;;28.50;15.67;;;;;;;-0.57;99.46;100192.09;5031230;28;20206;-68
2022/01/24 09:14:47;;;;;;;36.37;18.00;;;;;;;-0.57;98.49;100186.97;5035083;28;20665;-69
2022/01/24 09:17:14;;;;;;;36.13;18.33;;;;;;;-0.47;98.42;100190.94;5033032;28;20569;-68
2022/01/24 09:19:41;;;;;;;32.53;17.50;;;;;;;-0.41;98.01;100187.38;5038314;28;20198;-69
2022/01/24 09:22:09;;;;;;;30.60;16.07;;;;;;;-0.31;97.63;100188.81;5039667;28;20672;-70
2022/01/24 09:24:36;;;;;;;24.87;13.13;;;;;;;-0.36;96.47;100185.53;5037108;28;20202;-69
2022/01/24 09:27:03;;;;;;;18.33;8.83;;;;;;;-0.27;96.43;100195.53;5031128;28;20184;-69
2022/01/24 09:29:32;;;;;;;14.97;8.37;;;;;;;-0.14;96.64;100197.78;5031404;28;20663;-70
2022/01/24 09:31:59;;;;;;;14.50;8.17;;;;;;;-0.08;97.14;100190.72;5034075;28;20219;-68
2022/01/24 09:34:26;;;;;;;22.70;13.98;;;;;;;0.04;97.06;100194.66;5037702;28;20438;-69
2022/01/24 09:36:53;;;;;;;27.20;17.93;;;;;;;0.13;96.97;100194.38;5016997;28;20214;-68
2022/01/24 09:39:20;;;;;;;24.97;16.07;;;;;;;0.22;96.03;100195.84;5042526;28;20193;-69
2022/01/24 09:41:47;;;;;;;31.23;18.50;;;;;;;0.33;96.22;100200.66;5050586;28;20301;-68
2022/01/24 09:44:14;;;;;;;26.73;16.27;;;;;;;0.46;96.03;100200.28;5032620;28;20655;-70
2022/01/24 09:46:44;;;;;;;35.73;17.57;;;;;;;0.54;95.63;100196.56;5033066;28;20227;-69
2022/01/24 09:49:11;;;;;;;28.03;16.27;;;;;;;0.63;94.50;100204.88;5050598;28;20187;-70
2022/01/24 09:51:38;;;;;;;29.50;16.93;;;;;;;0.71;94.31;100206.34;5050453;28;20211;-69
2022/01/24 09:54:06;;;;;;;26.63;15.73;;;;;;;0.72;93.50;100213.16;5050466;28;20187;-68
2022/01/24 09:56:33;;;;;;;25.33;15.63;;;;;;;0.84;92.98;100213.66;5032809;28;20289;-68
2022/01/24 09:59:01;;;;;;;28.77;15.30;;;;;;;0.86;92.09;100215.28;5050878;28;20194;-68
2022/01/24 10:01:30;;;;;;;25.63;15.53;;;;;;;0.87;91.76;100211.00;5050320;28;20756;-69
2022/01/24 10:04:15;;;;;;;28.45;16.58;;;;;;;0.88;90.64;100212.66;5050062;28;20483;-68
2022/01/24 10:07:03;;;;;;;28.20;16.27;;;;;;;0.84;90.86;100205.94;5032578;28;20294;-68
2022/01/24 10:09:33;;;;;;;28.40;15.43;;;;;;;0.82;90.19;100200.00;5050699;28;20207;-68
2022/01/24 10:12:14;;;;;;;27.10;16.67;;;;;;;0.84;91.22;100208.50;5050014;28;20253;-68
2022/01/24 10:17:28;;;;;;;27.70;16.40;;;;;;;0.96;90.61;100226.13;5050579;28;20191;-67
2022/01/24 10:19:57;;;;;;;26.13;15.13;;;;;;;0.97;89.78;100216.66;5050419;28;20190;-68
2022/01/24 10:22:26;;;;;;;26.20;16.07;;;;;;;0.94;90.58;100214.19;5029349;28;20204;-68
2022/01/24 10:24:55;;;;;;;25.17;15.57;;;;;;;1.02;89.78;100213.06;5022628;28;20671;-68
2022/01/24 10:27:24;;;;;;;27.57;15.80;;;;;;;1.05;90.03;100208.72;5038897;28;20626;-69
2022/01/24 10:29:55;;;;;;;27.37;14.63;;;;;;;1.13;89.86;100209.25;5049114;28;20195;-69
2022/01/24 10:32:33;;;;;;;25.53;13.63;;;;;;;1.17;88.69;100203.97;5050199;28;20211;-68
2022/01/24 10:35:24;;;;;;;28.33;14.37;;;;;;;1.23;88.25;100213.22;5049798;28;20178;-67
2022/01/24 10:37:54;;;;;;;25.93;14.07;;;;;;;1.21;88.63;100203.88;5050398;28;20197;-67
2022/01/24 10:40:34;;;;;;;27.60;14.93;;;;;;;1.29;88.65;100199.31;5050001;28;20260;-68
2022/01/24 10:43:16;;;;;;;29.57;16.00;;;;;;;1.37;88.42;100220.47;5032308;28;20637;-69
2022/01/24 10:45:44;;;;;;;26.80;16.43;;;;;;;1.36;88.41;100207.66;5049850;28;20183;-70
2022/01/24 10:48:12;;;;;;;29.80;16.70;;;;;;;1.33;88.40;100216.31;5053516;28;20184;-67
2022/01/24 10:50:40;;;;;;;30.47;17.30;;;;;;;1.55;100.00;100208.69;5035898;28;20629;-58
2022/01/24 10:53:12;;;;;;;33.27;19.23;;;;;;;1.52;93.62;100210.53;5054365;28;20183;-67
2022/01/24 10:55:41;;;;;;;30.37;17.87;;;;;;;1.66;91.50;100210.03;5050229;28;20190;-69
2022/01/24 10:58:13;;;;;;;30.80;19.20;;;;;;;1.64;89.57;100204.94;5035957;28;20206;-68
2022/01/24 11:00:41;;;;;;;36.37;18.73;;;;;;;1.76;87.21;100206.25;5053486;28;20687;-68
2022/01/24 11:03:16;;;;;;;33.47;18.53;;;;;;;1.69;87.67;100202.22;5053811;28;20204;-69
2022/01/24 11:05:44;;;;;;;29.87;18.23;;;;;;;1.76;88.40;100201.09;5035474;28;20186;-67
2022/01/24 11:08:12;;;;;;;31.10;17.40;;;;;;;1.81;87.06;100188.91;5053519;28;20210;-68
2022/01/24 11:10:41;;;;;;;31.60;17.73;;;;;;;1.75;87.54;100194.28;5040226;28;20207;-68
2022/01/24 11:13:10;;;;;;;30.83;18.03;;;;;;;1.84;88.15;100182.78;5045039;28;20258;-70
2022/01/24 11:15:42;;;;;;;35.97;17.97;;;;;;;1.84;87.95;100183.63;5053252;28;20668;-69
2022/01/24 11:18:09;;;;;;;30.17;17.23;;;;;;;1.96;87.15;100191.81;5053583;28;20188;-69
2022/01/24 11:20:41;;;;;;;28.47;17.77;;;;;;;2.05;87.92;100192.28;5053037;28;20220;-69
2022/01/24 11:23:09;;;;;;;31.03;17.53;;;;;;;2.15;87.85;100195.34;5053518;28;20627;-69
2022/01/24 11:25:39;;;;;;;30.90;18.57;;;;;;;2.11;87.83;100191.25;5041568;28;20203;-68
2022/01/24 11:28:07;;;;;;;29.70;18.07;;;;;;;2.24;87.04;100190.75;5033299;28;20196;-69
2022/01/24 11:30:38;;;;;;;33.30;19.10;;;;;;;2.24;86.82;100199.34;5032842;28;20188;-68
2022/01/24 11:33:08;;;;;;;28.80;18.80;;;;;;;2.25;86.87;100198.44;5033311;28;20183;-68
2022/01/24 11:35:39;;;;;;;34.10;22.35;;;;;;;2.28;86.64;100197.47;5012970;28;20492;-70
2022/01/24 11:38:29;;;;;;;32.20;20.27;;;;;;;2.36;87.21;100201.44;5038977;28;20222;-71
2022/01/24 11:40:59;;;;;;;32.10;18.57;;;;;;;2.47;86.30;100210.50;5044380;28;20270;-69
2022/01/24 11:43:28;;;;;;;31.33;18.47;;;;;;;2.54;85.94;100199.03;5024267;28;20626;-69
2022/01/24 11:46:04;;;;;;;30.20;17.53;;;;;;;2.54;86.01;100193.91;5032669;28;20188;-70
2022/01/24 11:48:33;;;;;;;27.80;18.23;;;;;;;2.61;87.41;100191.91;5033092;28;20587;-69
2022/01/24 11:51:05;;;;;;;34.00;18.80;;;;;;;2.61;85.38;100189.31;5032553;28;20302;-70
2022/01/24 11:53:37;;;;;;;31.17;18.77;;;;;;;2.63;84.60;100190.09;5032806;28;20184;-69
2022/01/24 11:56:20;;;;;;;30.80;18.47;;;;;;;2.74;84.95;100192.22;5035387;28;20237;-68
2022/01/24 11:58:47;;;;;;;30.53;18.13;;;;;;;2.83;84.77;100189.28;5037975;28;20275;-68
2022/01/24 12:01:33;;;;;;;28.43;18.00;;;;;;;2.89;84.38;100180.47;5040172;28;20203;-68
2022/01/24 12:04:00;;;;;;;28.73;16.83;;;;;;;2.88;82.86;100186.53;5024483;28;20301;-68
2022/01/24 12:06:27;;;;;;;30.30;16.37;;;;;;;2.88;83.53;100182.19;5040461;28;20188;-69
2022/01/24 12:09:05;;;;;;;27.70;16.37;;;;;;;2.94;83.62;100181.13;5032663;28;20191;-69
2022/01/24 12:11:35;;;;;;;25.20;15.67;;;;;;;3.02;84.23;100178.22;5032328;28;20227;-69
2022/01/24 12:14:13;;;;;;;20.03;12.73;;;;;;;3.07;82.62;100166.81;5032476;28;20545;-68
2022/01/24 12:16:42;;;;;;;26.07;15.37;;;;;;;3.15;82.12;100173.38;5032719;28;20184;-69
2022/01/24 12:19:10;;;;;;;29.60;15.77;;;;;;;3.21;82.49;100166.22;5032435;28;20552;-72
2022/01/24 12:21:38;;;;;;;27.50;15.43;;;;;;;3.31;82.63;100169.22;5032268;28;20204;-71
2022/01/24 12:24:11;;;;;;;23.50;14.30;;;;;;;3.41;81.75;100159.34;5031806;28;20716;-71
2022/01/24 12:26:42;;;;;;;25.33;13.10;;;;;;;3.49;80.09;100157.28;5032236;28;20204;-70
2022/01/24 12:29:12;;;;;;;21.33;13.27;;;;;;;3.50;81.54;100158.09;5014797;28;20196;-69
2022/01/24 12:31:44;;;;;;;16.13;10.07;;;;;;;3.54;80.53;100160.50;5031927;28;20260;-71
2022/01/24 12:34:14;;;;;;;18.70;10.63;;;;;;;3.61;78.96;100153.31;5039553;28;20215;-71
2022/01/24 12:37:04;;;;;;;17.70;11.10;;;;;;;3.69;77.29;100145.22;5042640;28;20195;-71
2022/01/24 12:40:03;;;;;;;14.13;9.70;;;;;;;3.84;77.32;100151.44;5048383;28;20199;-68